Masonic Home, KY (40041)

3:06 PM EDT on August 30, 2015 (GMT -0400)
St. Matthews | | Change Station
CLOSE
Current Station
Personal Weather Station
Location: Louisville, KY
Elevation: 546 ft
Nearby Weather Stations

Elev 546 ft 38.24 °N, 85.65 °W | Updated 2 minutes ago

Partly Cloudy
Partly Cloudy
82.2 °F
Feels Like 86 °F
N
1.0
Wind Variable Wind from SE
Gusts 7.0 mph

Today
High -- | Low -- °F
--% Chance of Precip.
Yesterday
High -- | Low -- °F
Precip. -- in
7:10 AM 8:15 PM
Full, 98% visible
Pressure 30.07 in
Visibility 10.0 miles
Clouds Few 12000 ft
Heat Index 86 °F
Dew Point 70 °F
Humidity 67%
Rainfall Not available.
Snow Depth Not available.
UV 16.0 out of 12
Pollen 9.50 out of 12
Air Quality Not available.
Flu Activity Not available.
METAR KLOU 301853Z 22006KT 10SM FEW120 28/19 A3009 RMK AO2 SLP183 T02780194
Pressure 30.07 in
Visibility 10.0 miles
Clouds Few 12000 ft
Heat Index 86 °F
Dew Point 70 °F
Humidity 67%
Rainfall Not available.
Snow Depth Not available.
UV 16.0 out of 12
Pollen 9.50 out of 12
Air Quality Not available.
Flu Activity Not available.
METAR KLOU 301853Z 22006KT 10SM FEW120 28/19 A3009 RMK AO2 SLP183 T02780194

10-Day Weather Forecast

×

Almanac

Astronomy

Aug. 30, 2015 Rise Set
Actual Time
Civil Twilight
Nautical Twilight
Astronomical Twilight
Moon
Length of Visible Light
Length of Day
Tomorrow will be .
, % of the Moon is Illuminated

Today's Extremes

State Highs State Lows

Community

WunderPhotos

Upload Photos

1,851,035 photos uploaded!

WunderBlogs® & News

Nearby

Air Quality

  Air Quality AQ Index Pollutant
Not available.

Snow Depth

Station Depth Elevation

Earthquake Activity

City Distance Mag. Time & Date
Minimum magnitude displayed is 2.5.

Coastal Water Temperatures

Place Temperature

Stations

Nearby Weather Stations

Station Location Temp. Windchill Dew Point Humidity Wind Precip. Elev Updated Type